sensor_id;sensor_type;location;lat;lon;timestamp;temperature;humidity
21493;DHT22;10908;50.690;4.400;2023-07-29T00:01:22;20.20;78.50
21493;DHT22;10908;50.690;4.400;2023-07-29T00:03:48;20.10;78.20
21493;DHT22;10908;50.690;4.400;2023-07-29T00:06:13;20.00;78.10
21493;DHT22;10908;50.690;4.400;2023-07-29T00:08:39;19.90;78.20
21493;DHT22;10908;50.690;4.400;2023-07-29T00:11:05;19.80;78.40
21493;DHT22;10908;50.690;4.400;2023-07-29T00:13:30;19.90;78.20
21493;DHT22;10908;50.690;4.400;2023-07-29T00:15:56;19.80;78.00
21493;DHT22;10908;50.690;4.400;2023-07-29T00:18:22;19.80;78.10
21493;DHT22;10908;50.690;4.400;2023-07-29T00:20:49;19.70;78.30
21493;DHT22;10908;50.690;4.400;2023-07-29T00:23:17;19.60;78.70
21493;DHT22;10908;50.690;4.400;2023-07-29T00:25:45;19.50;79.00
21493;DHT22;10908;50.690;4.400;2023-07-29T00:28:12;19.50;79.20
21493;DHT22;10908;50.690;4.400;2023-07-29T00:30:38;19.50;79.30
21493;DHT22;10908;50.690;4.400;2023-07-29T00:33:03;19.50;79.40
21493;DHT22;10908;50.690;4.400;2023-07-29T00:35:29;19.40;79.60
21493;DHT22;10908;50.690;4.400;2023-07-29T00:37:54;19.40;79.70
21493;DHT22;10908;50.690;4.400;2023-07-29T00:40:22;19.40;79.60
21493;DHT22;10908;50.690;4.400;2023-07-29T00:42:48;19.40;79.80
21493;DHT22;10908;50.690;4.400;2023-07-29T00:45:14;19.40;79.90
21493;DHT22;10908;50.690;4.400;2023-07-29T00:47:41;19.30;80.20
21493;DHT22;10908;50.690;4.400;2023-07-29T00:50:09;19.30;80.10
21493;DHT22;10908;50.690;4.400;2023-07-29T00:52:36;19.30;80.10
21493;DHT22;10908;50.690;4.400;2023-07-29T00:55:02;19.30;80.20
21493;DHT22;10908;50.690;4.400;2023-07-29T00:57:29;19.40;80.30
21493;DHT22;10908;50.690;4.400;2023-07-29T00:59:55;19.30;80.30
21493;DHT22;10908;50.690;4.400;2023-07-29T01:02:21;19.30;80.30
21493;DHT22;10908;50.690;4.400;2023-07-29T01:05:01;19.30;80.20
21493;DHT22;10908;50.690;4.400;2023-07-29T01:10:34;19.30;80.60
21493;DHT22;10908;50.690;4.400;2023-07-29T01:13:09;19.40;80.20
21493;DHT22;10908;50.690;4.400;2023-07-29T01:18:30;19.20;80.70
21493;DHT22;10908;50.690;4.400;2023-07-29T01:20:59;19.30;80.80
21493;DHT22;10908;50.690;4.400;2023-07-29T01:23:33;19.30;80.70
21493;DHT22;10908;50.690;4.400;2023-07-29T01:25:59;19.20;80.80
21493;DHT22;10908;50.690;4.400;2023-07-29T01:28:25;19.10;81.20
21493;DHT22;10908;50.690;4.400;2023-07-29T01:30:57;19.00;81.60
21493;DHT22;10908;50.690;4.400;2023-07-29T01:33:26;19.00;81.90
21493;DHT22;10908;50.690;4.400;2023-07-29T01:35:58;18.90;82.00
21493;DHT22;10908;50.690;4.400;2023-07-29T01:38:33;18.80;82.20
21493;DHT22;10908;50.690;4.400;2023-07-29T01:41:01;18.90;82.30
21493;DHT22;10908;50.690;4.400;2023-07-29T01:43:31;18.90;82.20
21493;DHT22;10908;50.690;4.400;2023-07-29T01:45:57;18.80;82.60
21493;DHT22;10908;50.690;4.400;2023-07-29T01:48:23;18.80;82.80
21493;DHT22;10908;50.690;4.400;2023-07-29T01:50:49;18.70;83.10
21493;DHT22;10908;50.690;4.400;2023-07-29T01:53:14;18.60;83.30
21493;DHT22;10908;50.690;4.400;2023-07-29T01:55:44;18.60;83.50
21493;DHT22;10908;50.690;4.400;2023-07-29T01:58:10;18.70;83.30
21493;DHT22;10908;50.690;4.400;2023-07-29T02:00:36;18.70;83.30
21493;DHT22;10908;50.690;4.400;2023-07-29T02:03:02;18.70;83.50
21493;DHT22;10908;50.690;4.400;2023-07-29T02:05:27;18.70;83.40
21493;DHT22;10908;50.690;4.400;2023-07-29T02:07:53;18.80;83.50
21493;DHT22;10908;50.690;4.400;2023-07-29T02:10:19;18.70;83.40
21493;DHT22;10908;50.690;4.400;2023-07-29T02:12:44;18.70;83.30
21493;DHT22;10908;50.690;4.400;2023-07-29T02:15:10;18.70;83.40
21493;DHT22;10908;50.690;4.400;2023-07-29T02:17:36;18.70;83.50
21493;DHT22;10908;50.690;4.400;2023-07-29T02:20:02;18.60;83.80
21493;DHT22;10908;50.690;4.400;2023-07-29T02:22:29;18.50;84.20
21493;DHT22;10908;50.690;4.400;2023-07-29T02:24:55;18.50;84.30
21493;DHT22;10908;50.690;4.400;2023-07-29T02:27:21;18.40;84.30
21493;DHT22;10908;50.690;4.400;2023-07-29T02:29:46;18.40;84.60
21493;DHT22;10908;50.690;4.400;2023-07-29T02:32:12;18.40;84.70
21493;DHT22;10908;50.690;4.400;2023-07-29T02:34:38;18.30;84.70
21493;DHT22;10908;50.690;4.400;2023-07-29T02:37:03;18.30;84.80
21493;DHT22;10908;50.690;4.400;2023-07-29T02:39:29;18.40;84.70
21493;DHT22;10908;50.690;4.400;2023-07-29T02:41:55;18.30;84.70
21493;DHT22;10908;50.690;4.400;2023-07-29T02:44:21;18.30;84.80
21493;DHT22;10908;50.690;4.400;2023-07-29T02:46:47;18.30;85.00
21493;DHT22;10908;50.690;4.400;2023-07-29T02:49:12;18.20;85.00
21493;DHT22;10908;50.690;4.400;2023-07-29T02:51:38;18.20;85.10
21493;DHT22;10908;50.690;4.400;2023-07-29T02:54:03;18.10;85.40
21493;DHT22;10908;50.690;4.400;2023-07-29T02:56:29;18.20;85.30
21493;DHT22;10908;50.690;4.400;2023-07-29T02:58:56;18.30;85.10
21493;DHT22;10908;50.690;4.400;2023-07-29T03:01:23;18.30;84.90
21493;DHT22;10908;50.690;4.400;2023-07-29T03:03:50;18.30;84.80
21493;DHT22;10908;50.690;4.400;2023-07-29T03:06:16;18.30;84.60
21493;DHT22;10908;50.690;4.400;2023-07-29T03:08:42;18.30;84.40
21493;DHT22;10908;50.690;4.400;2023-07-29T03:11:13;18.30;84.10
21493;DHT22;10908;50.690;4.400;2023-07-29T03:13:39;18.30;84.20
21493;DHT22;10908;50.690;4.400;2023-07-29T03:16:08;18.20;84.10
21493;DHT22;10908;50.690;4.400;2023-07-29T03:18:34;18.20;84.20
21493;DHT22;10908;50.690;4.400;2023-07-29T03:21:00;18.20;84.10
21493;DHT22;10908;50.690;4.400;2023-07-29T03:23:27;18.20;84.00
21493;DHT22;10908;50.690;4.400;2023-07-29T03:25:58;18.20;83.80
21493;DHT22;10908;50.690;4.400;2023-07-29T03:28:28;18.20;83.60
21493;DHT22;10908;50.690;4.400;2023-07-29T03:30:57;18.20;83.80
21493;DHT22;10908;50.690;4.400;2023-07-29T03:33:25;18.20;83.90
21493;DHT22;10908;50.690;4.400;2023-07-29T03:35:50;18.10;84.10
21493;DHT22;10908;50.690;4.400;2023-07-29T03:38:16;18.20;83.90
21493;DHT22;10908;50.690;4.400;2023-07-29T03:40:42;18.10;83.90
21493;DHT22;10908;50.690;4.400;2023-07-29T03:43:08;18.10;84.20
21493;DHT22;10908;50.690;4.400;2023-07-29T03:45:35;18.10;84.20
21493;DHT22;10908;50.690;4.400;2023-07-29T03:48:01;18.00;84.50
21493;DHT22;10908;50.690;4.400;2023-07-29T03:50:28;18.10;84.50
21493;DHT22;10908;50.690;4.400;2023-07-29T03:52:54;18.20;84.30
21493;DHT22;10908;50.690;4.400;2023-07-29T03:55:20;18.30;84.20
21493;DHT22;10908;50.690;4.400;2023-07-29T03:57:46;18.20;84.40
21493;DHT22;10908;50.690;4.400;2023-07-29T04:00:12;18.20;84.60
21493;DHT22;10908;50.690;4.400;2023-07-29T04:02:37;18.10;84.80
21493;DHT22;10908;50.690;4.400;2023-07-29T04:05:05;18.20;84.90
21493;DHT22;10908;50.690;4.400;2023-07-29T04:07:31;18.20;84.90
21493;DHT22;10908;50.690;4.400;2023-07-29T04:09:57;18.20;84.90
21493;DHT22;10908;50.690;4.400;2023-07-29T04:12:24;18.10;85.10
21493;DHT22;10908;50.690;4.400;2023-07-29T04:14:50;18.20;85.00
21493;DHT22;10908;50.690;4.400;2023-07-29T04:17:15;18.20;84.90
21493;DHT22;10908;50.690;4.400;2023-07-29T04:19:41;18.20;84.70
21493;DHT22;10908;50.690;4.400;2023-07-29T04:22:07;18.10;84.70
21493;DHT22;10908;50.690;4.400;2023-07-29T04:24:32;18.10;85.00
21493;DHT22;10908;50.690;4.400;2023-07-29T04:26:58;18.10;84.80
21493;DHT22;10908;50.690;4.400;2023-07-29T04:29:23;18.10;85.00
21493;DHT22;10908;50.690;4.400;2023-07-29T04:31:52;18.20;84.90
21493;DHT22;10908;50.690;4.400;2023-07-29T04:34:18;18.20;84.70
21493;DHT22;10908;50.690;4.400;2023-07-29T04:36:45;18.20;84.50
21493;DHT22;10908;50.690;4.400;2023-07-29T04:39:11;18.30;84.30
21493;DHT22;10908;50.690;4.400;2023-07-29T04:41:37;18.30;84.00
21493;DHT22;10908;50.690;4.400;2023-07-29T04:44:02;18.30;83.90
21493;DHT22;10908;50.690;4.400;2023-07-29T04:46:28;18.20;84.00
21493;DHT22;10908;50.690;4.400;2023-07-29T04:48:54;18.30;83.90
21493;DHT22;10908;50.690;4.400;2023-07-29T04:51:20;18.30;83.90
21493;DHT22;10908;50.690;4.400;2023-07-29T04:53:45;18.30;83.80
21493;DHT22;10908;50.690;4.400;2023-07-29T04:56:11;18.30;83.70
21493;DHT22;10908;50.690;4.400;2023-07-29T04:58:37;18.30;83.60
21493;DHT22;10908;50.690;4.400;2023-07-29T05:01:03;18.30;83.50
21493;DHT22;10908;50.690;4.400;2023-07-29T05:03:30;18.30;83.50
21493;DHT22;10908;50.690;4.400;2023-07-29T05:05:57;18.30;83.30
21493;DHT22;10908;50.690;4.400;2023-07-29T05:08:28;18.30;83.10
21493;DHT22;10908;50.690;4.400;2023-07-29T05:10:54;18.40;83.00
21493;DHT22;10908;50.690;4.400;2023-07-29T05:13:22;18.40;82.60
21493;DHT22;10908;50.690;4.400;2023-07-29T05:15:48;18.40;82.30
21493;DHT22;10908;50.690;4.400;2023-07-29T05:18:15;18.30;82.90
21493;DHT22;10908;50.690;4.400;2023-07-29T05:20:40;18.30;83.10
21493;DHT22;10908;50.690;4.400;2023-07-29T05:23:06;18.30;83.20
21493;DHT22;10908;50.690;4.400;2023-07-29T05:25:32;18.40;83.10
21493;DHT22;10908;50.690;4.400;2023-07-29T05:28:00;18.50;82.90
21493;DHT22;10908;50.690;4.400;2023-07-29T05:30:26;18.80;82.70
21493;DHT22;10908;50.690;4.400;2023-07-29T05:32:52;19.00;81.70
21493;DHT22;10908;50.690;4.400;2023-07-29T05:35:18;19.20;81.50
21493;DHT22;10908;50.690;4.400;2023-07-29T05:37:43;19.20;80.40
21493;DHT22;10908;50.690;4.400;2023-07-29T05:40:09;19.40;80.30
21493;DHT22;10908;50.690;4.400;2023-07-29T05:42:35;19.50;79.10
21493;DHT22;10908;50.690;4.400;2023-07-29T05:45:01;19.60;79.10
21493;DHT22;10908;50.690;4.400;2023-07-29T05:47:27;19.70;78.20
21493;DHT22;10908;50.690;4.400;2023-07-29T05:49:52;19.70;78.00
21493;DHT22;10908;50.690;4.400;2023-07-29T05:52:18;19.70;78.00
21493;DHT22;10908;50.690;4.400;2023-07-29T05:54:44;19.60;77.90
21493;DHT22;10908;50.690;4.400;2023-07-29T05:57:11;19.40;78.20
21493;DHT22;10908;50.690;4.400;2023-07-29T05:59:37;19.50;78.60
21493;DHT22;10908;50.690;4.400;2023-07-29T06:02:02;19.50;78.40
21493;DHT22;10908;50.690;4.400;2023-07-29T06:04:28;19.60;78.30
21493;DHT22;10908;50.690;4.400;2023-07-29T06:06:54;19.80;77.80
21493;DHT22;10908;50.690;4.400;2023-07-29T06:09:25;19.90;77.70
21493;DHT22;10908;50.690;4.400;2023-07-29T06:11:52;20.10;77.30
21493;DHT22;10908;50.690;4.400;2023-07-29T06:14:18;20.10;76.40
21493;DHT22;10908;50.690;4.400;2023-07-29T06:16:43;20.10;76.30
21493;DHT22;10908;50.690;4.400;2023-07-29T06:19:09;20.10;76.10
21493;DHT22;10908;50.690;4.400;2023-07-29T06:21:35;20.00;76.30
21493;DHT22;10908;50.690;4.400;2023-07-29T06:24:01;20.00;75.70
21493;DHT22;10908;50.690;4.400;2023-07-29T06:26:27;20.10;76.10
21493;DHT22;10908;50.690;4.400;2023-07-29T06:28:53;20.40;75.40
21493;DHT22;10908;50.690;4.400;2023-07-29T06:31:19;20.40;75.10
21493;DHT22;10908;50.690;4.400;2023-07-29T06:33:45;20.40;74.70
21493;DHT22;10908;50.690;4.400;2023-07-29T06:36:11;20.30;75.20
21493;DHT22;10908;50.690;4.400;2023-07-29T06:38:36;20.30;75.30
21493;DHT22;10908;50.690;4.400;2023-07-29T06:41:04;20.20;74.90
21493;DHT22;10908;50.690;4.400;2023-07-29T06:43:29;20.20;75.50
21493;DHT22;10908;50.690;4.400;2023-07-29T06:45:55;20.20;75.80
21493;DHT22;10908;50.690;4.400;2023-07-29T06:48:21;20.20;76.30
21493;DHT22;10908;50.690;4.400;2023-07-29T06:50:47;20.20;76.30
21493;DHT22;10908;50.690;4.400;2023-07-29T06:53:12;20.10;76.50
21493;DHT22;10908;50.690;4.400;2023-07-29T06:55:38;20.10;77.00
21493;DHT22;10908;50.690;4.400;2023-07-29T06:58:04;20.10;77.30
21493;DHT22;10908;50.690;4.400;2023-07-29T07:00:30;20.10;77.50
21493;DHT22;10908;50.690;4.400;2023-07-29T07:02:56;20.10;77.70
21493;DHT22;10908;50.690;4.400;2023-07-29T07:05:21;20.10;77.80
21493;DHT22;10908;50.690;4.400;2023-07-29T07:07:47;20.30;77.70
21493;DHT22;10908;50.690;4.400;2023-07-29T07:10:13;20.30;78.00
21493;DHT22;10908;50.690;4.400;2023-07-29T07:12:39;20.40;78.00
21493;DHT22;10908;50.690;4.400;2023-07-29T07:15:05;20.40;77.00
21493;DHT22;10908;50.690;4.400;2023-07-29T07:17:31;20.40;77.40
21493;DHT22;10908;50.690;4.400;2023-07-29T07:19:56;20.60;77.50
21493;DHT22;10908;50.690;4.400;2023-07-29T07:22:22;20.70;76.80
21493;DHT22;10908;50.690;4.400;2023-07-29T07:24:48;20.90;76.40
21493;DHT22;10908;50.690;4.400;2023-07-29T07:27:13;21.00;75.60
21493;DHT22;10908;50.690;4.400;2023-07-29T07:29:39;21.30;76.10
21493;DHT22;10908;50.690;4.400;2023-07-29T07:32:05;21.30;75.30
21493;DHT22;10908;50.690;4.400;2023-07-29T07:34:31;21.10;74.60
21493;DHT22;10908;50.690;4.400;2023-07-29T07:36:58;20.90;74.90
21493;DHT22;10908;50.690;4.400;2023-07-29T07:39:24;20.90;75.40
21493;DHT22;10908;50.690;4.400;2023-07-29T07:41:49;20.80;75.20
21493;DHT22;10908;50.690;4.400;2023-07-29T07:44:15;20.90;76.20
21493;DHT22;10908;50.690;4.400;2023-07-29T07:46:43;20.80;76.20
21493;DHT22;10908;50.690;4.400;2023-07-29T07:49:09;20.80;76.30
21493;DHT22;10908;50.690;4.400;2023-07-29T07:51:34;20.90;75.90
21493;DHT22;10908;50.690;4.400;2023-07-29T07:54:00;21.30;75.70
21493;DHT22;10908;50.690;4.400;2023-07-29T07:56:26;21.40;73.00
21493;DHT22;10908;50.690;4.400;2023-07-29T07:58:51;21.50;72.70
21493;DHT22;10908;50.690;4.400;2023-07-29T08:01:17;21.80;72.70
21493;DHT22;10908;50.690;4.400;2023-07-29T08:03:43;22.00;72.40
21493;DHT22;10908;50.690;4.400;2023-07-29T08:06:08;22.10;71.80
21493;DHT22;10908;50.690;4.400;2023-07-29T08:08:34;22.10;72.00
21493;DHT22;10908;50.690;4.400;2023-07-29T08:11:00;22.00;71.10
21493;DHT22;10908;50.690;4.400;2023-07-29T08:13:26;21.90;71.10
21493;DHT22;10908;50.690;4.400;2023-07-29T08:15:52;21.80;70.70
21493;DHT22;10908;50.690;4.400;2023-07-29T08:18:18;22.00;71.40
21493;DHT22;10908;50.690;4.400;2023-07-29T08:20:57;22.30;71.40
21493;DHT22;10908;50.690;4.400;2023-07-29T08:23:26;22.50;69.30
21493;DHT22;10908;50.690;4.400;2023-07-29T08:25:57;22.50;68.10
21493;DHT22;10908;50.690;4.400;2023-07-29T08:28:37;22.50;67.50
21493;DHT22;10908;50.690;4.400;2023-07-29T08:31:03;22.60;69.20
21493;DHT22;10908;50.690;4.400;2023-07-29T08:33:31;22.80;68.80
21493;DHT22;10908;50.690;4.400;2023-07-29T08:35:58;22.70;67.10
21493;DHT22;10908;50.690;4.400;2023-07-29T08:38:24;22.60;66.80
21493;DHT22;10908;50.690;4.400;2023-07-29T08:40:54;22.60;67.90
21493;DHT22;10908;50.690;4.400;2023-07-29T08:43:27;22.50;68.90
21493;DHT22;10908;50.690;4.400;2023-07-29T08:45:54;22.60;69.20
21493;DHT22;10908;50.690;4.400;2023-07-29T08:48:26;22.60;69.00
21493;DHT22;10908;50.690;4.400;2023-07-29T08:50:55;22.50;66.40
21493;DHT22;10908;50.690;4.400;2023-07-29T08:53:21;22.20;67.80
21493;DHT22;10908;50.690;4.400;2023-07-29T08:55:47;22.10;68.00
21493;DHT22;10908;50.690;4.400;2023-07-29T08:58:13;22.10;68.50
21493;DHT22;10908;50.690;4.400;2023-07-29T09:00:39;22.10;67.90
21493;DHT22;10908;50.690;4.400;2023-07-29T09:03:05;22.20;68.70
21493;DHT22;10908;50.690;4.400;2023-07-29T09:05:35;22.20;68.00
21493;DHT22;10908;50.690;4.400;2023-07-29T09:08:02;22.30;68.50
21493;DHT22;10908;50.690;4.400;2023-07-29T09:10:28;22.40;67.90
21493;DHT22;10908;50.690;4.400;2023-07-29T09:12:54;22.40;68.20
21493;DHT22;10908;50.690;4.400;2023-07-29T09:15:28;22.60;67.90
21493;DHT22;10908;50.690;4.400;2023-07-29T09:17:56;22.70;68.00
21493;DHT22;10908;50.690;4.400;2023-07-29T09:20:26;22.90;66.00
21493;DHT22;10908;50.690;4.400;2023-07-29T09:22:53;22.90;65.60
21493;DHT22;10908;50.690;4.400;2023-07-29T09:25:26;23.00;65.60
21493;DHT22;10908;50.690;4.400;2023-07-29T09:27:52;23.20;65.80
21493;DHT22;10908;50.690;4.400;2023-07-29T09:30:18;23.30;65.20
21493;DHT22;10908;50.690;4.400;2023-07-29T09:32:43;23.40;65.40
21493;DHT22;10908;50.690;4.400;2023-07-29T09:35:13;23.50;65.30
21493;DHT22;10908;50.690;4.400;2023-07-29T09:37:39;23.50;65.50
21493;DHT22;10908;50.690;4.400;2023-07-29T09:40:06;23.50;65.20
21493;DHT22;10908;50.690;4.400;2023-07-29T09:42:32;23.30;64.90
21493;DHT22;10908;50.690;4.400;2023-07-29T09:44:58;23.20;66.20
21493;DHT22;10908;50.690;4.400;2023-07-29T09:47:24;23.10;66.90
21493;DHT22;10908;50.690;4.400;2023-07-29T09:49:51;23.30;67.40
21493;DHT22;10908;50.690;4.400;2023-07-29T09:52:19;23.70;66.90
21493;DHT22;10908;50.690;4.400;2023-07-29T09:54:46;23.80;65.90
21493;DHT22;10908;50.690;4.400;2023-07-29T09:57:17;23.60;65.40
21493;DHT22;10908;50.690;4.400;2023-07-29T09:59:43;23.30;66.10
21493;DHT22;10908;50.690;4.400;2023-07-29T10:02:18;23.00;67.90
21493;DHT22;10908;50.690;4.400;2023-07-29T10:04:46;22.80;71.60
21493;DHT22;10908;50.690;4.400;2023-07-29T10:07:12;22.40;73.70
21493;DHT22;10908;50.690;4.400;2023-07-29T10:09:39;22.20;75.40
21493;DHT22;10908;50.690;4.400;2023-07-29T10:12:06;22.00;76.80
21493;DHT22;10908;50.690;4.400;2023-07-29T10:14:32;21.70;78.30
21493;DHT22;10908;50.690;4.400;2023-07-29T10:16:58;21.60;79.60
21493;DHT22;10908;50.690;4.400;2023-07-29T10:19:25;21.70;80.00
21493;DHT22;10908;50.690;4.400;2023-07-29T10:21:52;21.70;79.20
21493;DHT22;10908;50.690;4.400;2023-07-29T10:24:23;21.70;79.40
21493;DHT22;10908;50.690;4.400;2023-07-29T10:26:57;21.70;80.60
21493;DHT22;10908;50.690;4.400;2023-07-29T10:29:24;21.80;80.70
21493;DHT22;10908;50.690;4.400;2023-07-29T10:31:52;22.00;80.70
21493;DHT22;10908;50.690;4.400;2023-07-29T10:34:21;22.20;80.60
21493;DHT22;10908;50.690;4.400;2023-07-29T10:36:48;22.30;80.20
21493;DHT22;10908;50.690;4.400;2023-07-29T10:39:14;22.60;79.20
21493;DHT22;10908;50.690;4.400;2023-07-29T10:41:59;22.70;79.00
21493;DHT22;10908;50.690;4.400;2023-07-29T10:47:12;22.70;78.40
21493;DHT22;10908;50.690;4.400;2023-07-29T10:49:45;22.80;77.90
21493;DHT22;10908;50.690;4.400;2023-07-29T10:52:15;22.70;78.60
21493;DHT22;10908;50.690;4.400;2023-07-29T10:54:48;22.80;78.20
21493;DHT22;10908;50.690;4.400;2023-07-29T10:57:15;22.70;78.10
21493;DHT22;10908;50.690;4.400;2023-07-29T10:59:56;22.60;77.70
21493;DHT22;10908;50.690;4.400;2023-07-29T11:02:32;22.50;77.50
21493;DHT22;10908;50.690;4.400;2023-07-29T11:04:58;22.50;77.50
21493;DHT22;10908;50.690;4.400;2023-07-29T11:07:27;22.60;76.70
21493;DHT22;10908;50.690;4.400;2023-07-29T11:10:04;22.60;76.70
21493;DHT22;10908;50.690;4.400;2023-07-29T11:15:14;22.50;77.60
21493;DHT22;10908;50.690;4.400;2023-07-29T11:17:42;22.40;77.70
21493;DHT22;10908;50.690;4.400;2023-07-29T11:20:09;22.40;78.90
21493;DHT22;10908;50.690;4.400;2023-07-29T11:22:36;22.50;79.30
21493;DHT22;10908;50.690;4.400;2023-07-29T11:25:02;22.40;78.80
21493;DHT22;10908;50.690;4.400;2023-07-29T11:27:28;22.40;78.90
21493;DHT22;10908;50.690;4.400;2023-07-29T11:29:58;22.10;78.80
21493;DHT22;10908;50.690;4.400;2023-07-29T11:32:25;22.10;78.50
21493;DHT22;10908;50.690;4.400;2023-07-29T11:34:51;22.40;78.80
21493;DHT22;10908;50.690;4.400;2023-07-29T11:37:17;22.60;79.00
21493;DHT22;10908;50.690;4.400;2023-07-29T11:39:43;22.60;77.10
21493;DHT22;10908;50.690;4.400;2023-07-29T11:42:13;22.70;75.90
21493;DHT22;10908;50.690;4.400;2023-07-29T11:44:39;22.80;76.30
21493;DHT22;10908;50.690;4.400;2023-07-29T11:47:09;23.00;74.90
21493;DHT22;10908;50.690;4.400;2023-07-29T11:49:35;23.10;76.10
21493;DHT22;10908;50.690;4.400;2023-07-29T11:52:02;23.10;74.40
21493;DHT22;10908;50.690;4.400;2023-07-29T11:54:29;23.10;72.60
21493;DHT22;10908;50.690;4.400;2023-07-29T11:56:55;23.00;71.80
21493;DHT22;10908;50.690;4.400;2023-07-29T11:59:21;23.10;73.20
21493;DHT22;10908;50.690;4.400;2023-07-29T12:01:47;23.20;72.30
21493;DHT22;10908;50.690;4.400;2023-07-29T12:04:13;23.30;71.70
21493;DHT22;10908;50.690;4.400;2023-07-29T12:06:39;23.10;70.30
21493;DHT22;10908;50.690;4.400;2023-07-29T12:09:06;23.20;71.60
21493;DHT22;10908;50.690;4.400;2023-07-29T12:11:33;23.20;70.90
21493;DHT22;10908;50.690;4.400;2023-07-29T12:14:01;23.20;71.80
21493;DHT22;10908;50.690;4.400;2023-07-29T12:16:27;23.20;71.20
21493;DHT22;10908;50.690;4.400;2023-07-29T12:19:00;23.00;71.40
21493;DHT22;10908;50.690;4.400;2023-07-29T12:21:26;22.90;74.30
21493;DHT22;10908;50.690;4.400;2023-07-29T12:23:52;22.80;73.40
21493;DHT22;10908;50.690;4.400;2023-07-29T12:26:17;22.80;75.30
21493;DHT22;10908;50.690;4.400;2023-07-29T12:28:46;22.70;75.20
21493;DHT22;10908;50.690;4.400;2023-07-29T12:31:13;22.60;76.20
21493;DHT22;10908;50.690;4.400;2023-07-29T12:33:39;22.40;76.70
21493;DHT22;10908;50.690;4.400;2023-07-29T12:36:07;22.40;76.80
21493;DHT22;10908;50.690;4.400;2023-07-29T12:38:33;22.20;77.20
21493;DHT22;10908;50.690;4.400;2023-07-29T12:40:59;22.20;77.20
21493;DHT22;10908;50.690;4.400;2023-07-29T12:43:25;22.00;77.70
21493;DHT22;10908;50.690;4.400;2023-07-29T12:45:51;22.00;78.30
21493;DHT22;10908;50.690;4.400;2023-07-29T12:48:19;22.00;77.50
21493;DHT22;10908;50.690;4.400;2023-07-29T12:50:45;21.90;78.10
21493;DHT22;10908;50.690;4.400;2023-07-29T12:53:11;21.90;77.80
21493;DHT22;10908;50.690;4.400;2023-07-29T12:55:37;22.00;79.30
21493;DHT22;10908;50.690;4.400;2023-07-29T12:58:03;22.10;79.90
21493;DHT22;10908;50.690;4.400;2023-07-29T13:00:28;22.20;79.30
21493;DHT22;10908;50.690;4.400;2023-07-29T13:02:54;22.30;78.30
21493;DHT22;10908;50.690;4.400;2023-07-29T13:05:20;22.60;78.30
21493;DHT22;10908;50.690;4.400;2023-07-29T13:07:46;22.70;77.20
21493;DHT22;10908;50.690;4.400;2023-07-29T13:10:12;22.60;78.10
21493;DHT22;10908;50.690;4.400;2023-07-29T13:12:39;22.80;78.90
21493;DHT22;10908;50.690;4.400;2023-07-29T13:15:05;22.90;79.30
21493;DHT22;10908;50.690;4.400;2023-07-29T13:17:32;22.90;76.60
21493;DHT22;10908;50.690;4.400;2023-07-29T13:19:57;23.10;76.90
21493;DHT22;10908;50.690;4.400;2023-07-29T13:22:23;23.20;76.50
21493;DHT22;10908;50.690;4.400;2023-07-29T13:24:48;23.30;76.00
21493;DHT22;10908;50.690;4.400;2023-07-29T13:27:14;23.30;74.50
21493;DHT22;10908;50.690;4.400;2023-07-29T13:29:40;23.30;75.50
21493;DHT22;10908;50.690;4.400;2023-07-29T13:32:07;23.30;74.90
21493;DHT22;10908;50.690;4.400;2023-07-29T13:34:33;23.40;75.40
21493;DHT22;10908;50.690;4.400;2023-07-29T13:37:00;23.30;76.30
21493;DHT22;10908;50.690;4.400;2023-07-29T13:39:25;23.10;74.40
21493;DHT22;10908;50.690;4.400;2023-07-29T13:41:52;23.00;75.70
21493;DHT22;10908;50.690;4.400;2023-07-29T13:44:18;23.00;76.10
21493;DHT22;10908;50.690;4.400;2023-07-29T13:46:44;22.90;76.40
21493;DHT22;10908;50.690;4.400;2023-07-29T13:49:09;22.90;75.60
21493;DHT22;10908;50.690;4.400;2023-07-29T13:51:35;22.90;75.30
21493;DHT22;10908;50.690;4.400;2023-07-29T13:54:01;23.00;76.20
21493;DHT22;10908;50.690;4.400;2023-07-29T13:56:27;23.00;75.80
21493;DHT22;10908;50.690;4.400;2023-07-29T13:58:53;23.20;75.90
21493;DHT22;10908;50.690;4.400;2023-07-29T14:01:19;23.20;74.30
21493;DHT22;10908;50.690;4.400;2023-07-29T14:03:44;23.20;74.10
21493;DHT22;10908;50.690;4.400;2023-07-29T14:06:10;23.10;73.40
21493;DHT22;10908;50.690;4.400;2023-07-29T14:08:36;23.10;74.40
21493;DHT22;10908;50.690;4.400;2023-07-29T14:11:02;23.10;73.30
21493;DHT22;10908;50.690;4.400;2023-07-29T14:13:27;23.00;73.40
21493;DHT22;10908;50.690;4.400;2023-07-29T14:15:53;22.90;72.00
21493;DHT22;10908;50.690;4.400;2023-07-29T14:18:19;22.90;72.50
21493;DHT22;10908;50.690;4.400;2023-07-29T14:20:45;23.20;72.20
21493;DHT22;10908;50.690;4.400;2023-07-29T14:23:11;23.20;72.20
21493;DHT22;10908;50.690;4.400;2023-07-29T14:25:37;23.40;71.80
21493;DHT22;10908;50.690;4.400;2023-07-29T14:28:03;23.60;72.00
21493;DHT22;10908;50.690;4.400;2023-07-29T14:30:28;23.80;72.00
21493;DHT22;10908;50.690;4.400;2023-07-29T14:32:54;23.80;70.90
21493;DHT22;10908;50.690;4.400;2023-07-29T14:35:19;23.80;70.60
21493;DHT22;10908;50.690;4.400;2023-07-29T14:37:45;23.80;70.90
21493;DHT22;10908;50.690;4.400;2023-07-29T14:40:11;23.90;71.00
21493;DHT22;10908;50.690;4.400;2023-07-29T14:42:36;24.00;71.10
21493;DHT22;10908;50.690;4.400;2023-07-29T14:45:02;24.00;71.20
21493;DHT22;10908;50.690;4.400;2023-07-29T14:47:28;24.00;70.80
21493;DHT22;10908;50.690;4.400;2023-07-29T14:49:53;23.80;72.10
21493;DHT22;10908;50.690;4.400;2023-07-29T14:52:19;23.40;75.80
21493;DHT22;10908;50.690;4.400;2023-07-29T14:54:45;22.90;77.50
21493;DHT22;10908;50.690;4.400;2023-07-29T14:57:11;22.90;78.50
21493;DHT22;10908;50.690;4.400;2023-07-29T14:59:36;23.00;79.90
21493;DHT22;10908;50.690;4.400;2023-07-29T15:02:02;23.20;80.20
21493;DHT22;10908;50.690;4.400;2023-07-29T15:04:28;23.20;80.00
21493;DHT22;10908;50.690;4.400;2023-07-29T15:06:53;23.30;80.20
21493;DHT22;10908;50.690;4.400;2023-07-29T15:09:19;23.40;75.20
21493;DHT22;10908;50.690;4.400;2023-07-29T15:11:44;23.20;73.80
21493;DHT22;10908;50.690;4.400;2023-07-29T15:14:10;23.10;71.30
21493;DHT22;10908;50.690;4.400;2023-07-29T15:16:36;23.10;71.90
21493;DHT22;10908;50.690;4.400;2023-07-29T15:19:04;23.20;72.70
21493;DHT22;10908;50.690;4.400;2023-07-29T15:21:30;23.30;72.00
21493;DHT22;10908;50.690;4.400;2023-07-29T15:23:55;23.40;72.80
21493;DHT22;10908;50.690;4.400;2023-07-29T15:26:21;23.60;73.30
21493;DHT22;10908;50.690;4.400;2023-07-29T15:28:47;23.60;73.10
21493;DHT22;10908;50.690;4.400;2023-07-29T15:31:13;23.40;71.80
21493;DHT22;10908;50.690;4.400;2023-07-29T15:33:39;23.30;72.40
21493;DHT22;10908;50.690;4.400;2023-07-29T15:36:04;23.20;72.40
21493;DHT22;10908;50.690;4.400;2023-07-29T15:38:30;23.10;72.90